首页
METAR-TAF:

METAR-TAF

机场 :

贝伦, 帕拉, 巴西

纬度: 01-23S, 经度: 048-29W, 海拔: 16米

当前天气观测

该预报发布于35分钟前的18:00 UTC
风速9节,风向
温度 29°C
湿度 74%
气压 1014 hPa
能见度10公里或以上
多云层高于3000英尺
少量云层高于3500英尺, 塔状积云.

METAR: SBBE 171800Z 36009KT 9999 BKN030 FEW035TCU 29/24 Q1014

时间: 15:35 (18:35 UTC)

预报

该预报发布于2小时和35分钟前的16:00 UTC
预报有效从17日的 18点(UTC)到 18日的 18点(UTC)
风速5节,风向
能见度10公里或以上
多云层高于3000英尺
少量云层高于3500英尺, 塔状积云.
短暂存在
从 17日的 18点(UTC)到 17日的 21点(UTC)
能見度: 8000
阵雨
成为
从 17日的 22点(UTC)到 17日的 24点(UTC)
风速5节,风向东转东北
少量云层高于2000英尺
成为
从 18日的 01点(UTC)到 日的 点(UTC)
能见度10公里或以上
1500米以下无云,无积雨云
成为
从 18日的 10点(UTC)到 18日的 12点(UTC)
风速10节,风向东转东北
能见度10公里或以上
散云层高于1500英尺
成为
从 18日的 12点(UTC)到 18日的 14点(UTC)
风速10节,风向
成为
从 18日的 15点(UTC)到 18日的 17点(UTC)
风速8节,风向北转西北
多云层高于3000英尺
少量云层高于3500英尺, 塔状积云.

TAF: SBBE 171600Z 1718/1818 35005KT 9999 BKN030 FEW035TCU TN23/1809Z T X31/1817Z TEMPO 1718/1721 8000 SHRA BECMG 1722/1724 06005KT FEW020 BECMG 1801/ 1803 CAVOK BECMG 1810/1812 07010KT 9999 SCT015 BECMG 1812/1814 10010KT BK N025 BECMG 1815/1817 33008KT BKN030 FEW035TCU RMK PFD

超过4000个机场的气象观测和天气预报(METAR&TAF报告)。

可查询的气象台以黄色和红色小点在地图上表示。

将鼠标移到小点上方,可查看气象台名称。

然后点击查看天气观测和预报。

如需切换地图:点击带黑十字的绿色按钮放大地图;点击带横线的绿色按钮缩小地图;或者点击绿色箭头查看邻近地区的地图。


METAR-TAF: